sensor_id;sensor_type;location;lat;lon;timestamp;P1;durP1;ratioP1;P2;durP2;ratioP2
22034;SDS011;11181;51.002;4.356;2023-11-21T00:00:57;24.90;;;15.37;;
22034;SDS011;11181;51.002;4.356;2023-11-21T00:03:27;22.90;;;14.43;;
22034;SDS011;11181;51.002;4.356;2023-11-21T00:05:54;27.27;;;15.60;;
22034;SDS011;11181;51.002;4.356;2023-11-21T00:08:21;27.97;;;17.10;;
22034;SDS011;11181;51.002;4.356;2023-11-21T00:10:48;27.27;;;15.97;;
22034;SDS011;11181;51.002;4.356;2023-11-21T00:13:16;27.67;;;15.80;;
22034;SDS011;11181;51.002;4.356;2023-11-21T00:15:44;28.30;;;15.77;;
22034;SDS011;11181;51.002;4.356;2023-11-21T00:18:11;26.97;;;15.50;;
22034;SDS011;11181;51.002;4.356;2023-11-21T00:20:40;25.67;;;14.93;;
22034;SDS011;11181;51.002;4.356;2023-11-21T00:23:07;26.53;;;15.63;;
22034;SDS011;11181;51.002;4.356;2023-11-21T00:25:34;22.20;;;13.10;;
22034;SDS011;11181;51.002;4.356;2023-11-21T00:28:04;28.50;;;14.87;;
22034;SDS011;11181;51.002;4.356;2023-11-21T00:30:31;22.63;;;13.87;;
22034;SDS011;11181;51.002;4.356;2023-11-21T00:32:58;27.63;;;14.80;;
22034;SDS011;11181;51.002;4.356;2023-11-21T00:35:25;27.37;;;15.50;;
22034;SDS011;11181;51.002;4.356;2023-11-21T00:37:53;23.53;;;13.77;;
22034;SDS011;11181;51.002;4.356;2023-11-21T00:40:20;25.00;;;15.17;;
22034;SDS011;11181;51.002;4.356;2023-11-21T00:42:47;23.17;;;14.27;;
22034;SDS011;11181;51.002;4.356;2023-11-21T00:45:14;26.80;;;14.90;;
22034;SDS011;11181;51.002;4.356;2023-11-21T00:47:41;26.37;;;14.50;;
22034;SDS011;11181;51.002;4.356;2023-11-21T00:50:08;25.23;;;15.27;;
22034;SDS011;11181;51.002;4.356;2023-11-21T00:52:35;27.17;;;14.33;;
22034;SDS011;11181;51.002;4.356;2023-11-21T00:55:04;25.07;;;14.50;;
22034;SDS011;11181;51.002;4.356;2023-11-21T00:57:32;23.03;;;13.27;;
22034;SDS011;11181;51.002;4.356;2023-11-21T00:59:59;26.90;;;14.03;;
22034;SDS011;11181;51.002;4.356;2023-11-21T01:02:26;24.07;;;13.60;;
22034;SDS011;11181;51.002;4.356;2023-11-21T01:04:54;23.23;;;14.10;;
22034;SDS011;11181;51.002;4.356;2023-11-21T01:07:21;25.60;;;14.07;;
22034;SDS011;11181;51.002;4.356;2023-11-21T01:09:48;23.00;;;13.47;;
22034;SDS011;11181;51.002;4.356;2023-11-21T01:12:16;23.97;;;13.70;;
22034;SDS011;11181;51.002;4.356;2023-11-21T01:14:44;28.30;;;14.40;;
22034;SDS011;11181;51.002;4.356;2023-11-21T01:17:11;21.37;;;13.43;;
22034;SDS011;11181;51.002;4.356;2023-11-21T01:19:38;26.87;;;14.37;;
22034;SDS011;11181;51.002;4.356;2023-11-21T01:22:05;24.77;;;13.23;;
22034;SDS011;11181;51.002;4.356;2023-11-21T01:24:32;20.37;;;12.63;;
22034;SDS011;11181;51.002;4.356;2023-11-21T01:26:59;23.67;;;12.90;;
22034;SDS011;11181;51.002;4.356;2023-11-21T01:29:27;24.07;;;13.43;;
22034;SDS011;11181;51.002;4.356;2023-11-21T01:31:54;23.77;;;14.00;;
22034;SDS011;11181;51.002;4.356;2023-11-21T01:34:22;24.37;;;12.57;;
22034;SDS011;11181;51.002;4.356;2023-11-21T01:36:49;24.20;;;14.13;;
22034;SDS011;11181;51.002;4.356;2023-11-21T01:39:16;20.87;;;12.83;;
22034;SDS011;11181;51.002;4.356;2023-11-21T01:41:48;23.07;;;13.57;;
22034;SDS011;11181;51.002;4.356;2023-11-21T01:44:16;23.30;;;13.93;;
22034;SDS011;11181;51.002;4.356;2023-11-21T01:46:45;22.93;;;12.30;;
22034;SDS011;11181;51.002;4.356;2023-11-21T01:49:13;25.80;;;12.63;;
22034;SDS011;11181;51.002;4.356;2023-11-21T01:51:41;23.97;;;13.30;;
22034;SDS011;11181;51.002;4.356;2023-11-21T01:54:09;24.00;;;14.43;;
22034;SDS011;11181;51.002;4.356;2023-11-21T01:56:37;21.93;;;11.93;;
22034;SDS011;11181;51.002;4.356;2023-11-21T01:59:04;21.47;;;12.60;;
22034;SDS011;11181;51.002;4.356;2023-11-21T02:01:32;26.93;;;13.80;;
22034;SDS011;11181;51.002;4.356;2023-11-21T02:04:00;23.80;;;13.03;;
22034;SDS011;11181;51.002;4.356;2023-11-21T02:06:28;20.90;;;12.23;;
22034;SDS011;11181;51.002;4.356;2023-11-21T02:08:56;23.80;;;12.43;;
22034;SDS011;11181;51.002;4.356;2023-11-21T02:11:24;25.97;;;12.87;;
22034;SDS011;11181;51.002;4.356;2023-11-21T02:13:52;19.90;;;12.47;;
22034;SDS011;11181;51.002;4.356;2023-11-21T02:16:20;21.47;;;12.63;;
22034;SDS011;11181;51.002;4.356;2023-11-21T02:18:47;21.27;;;13.00;;
22034;SDS011;11181;51.002;4.356;2023-11-21T02:21:16;21.30;;;12.17;;
22034;SDS011;11181;51.002;4.356;2023-11-21T02:23:45;20.17;;;12.33;;
22034;SDS011;11181;51.002;4.356;2023-11-21T02:26:12;24.30;;;12.97;;
22034;SDS011;11181;51.002;4.356;2023-11-21T02:28:39;27.50;;;13.33;;
22034;SDS011;11181;51.002;4.356;2023-11-21T02:31:07;20.07;;;12.13;;
22034;SDS011;11181;51.002;4.356;2023-11-21T02:33:34;20.50;;;12.17;;
22034;SDS011;11181;51.002;4.356;2023-11-21T02:36:04;22.37;;;12.00;;
22034;SDS011;11181;51.002;4.356;2023-11-21T02:38:31;18.77;;;9.97;;
22034;SDS011;11181;51.002;4.356;2023-11-21T02:40:59;18.17;;;10.40;;
22034;SDS011;11181;51.002;4.356;2023-11-21T02:43:26;18.27;;;11.03;;
22034;SDS011;11181;51.002;4.356;2023-11-21T02:45:53;20.57;;;11.87;;
22034;SDS011;11181;51.002;4.356;2023-11-21T02:48:20;22.50;;;11.67;;
22034;SDS011;11181;51.002;4.356;2023-11-21T02:50:49;16.90;;;10.97;;
22034;SDS011;11181;51.002;4.356;2023-11-21T02:53:15;20.97;;;11.40;;
22034;SDS011;11181;51.002;4.356;2023-11-21T02:55:43;21.93;;;11.87;;
22034;SDS011;11181;51.002;4.356;2023-11-21T02:58:11;20.10;;;11.07;;
22034;SDS011;11181;51.002;4.356;2023-11-21T03:00:38;20.00;;;11.17;;
22034;SDS011;11181;51.002;4.356;2023-11-21T03:03:06;23.60;;;11.43;;
22034;SDS011;11181;51.002;4.356;2023-11-21T03:05:33;18.47;;;11.30;;
22034;SDS011;11181;51.002;4.356;2023-11-21T03:08:02;17.87;;;11.40;;
22034;SDS011;11181;51.002;4.356;2023-11-21T03:10:29;20.70;;;11.27;;
22034;SDS011;11181;51.002;4.356;2023-11-21T03:12:56;20.13;;;11.10;;
22034;SDS011;11181;51.002;4.356;2023-11-21T03:15:24;18.13;;;11.03;;
22034;SDS011;11181;51.002;4.356;2023-11-21T03:17:51;17.07;;;11.20;;
22034;SDS011;11181;51.002;4.356;2023-11-21T03:20:18;17.80;;;10.70;;
22034;SDS011;11181;51.002;4.356;2023-11-21T03:22:45;19.37;;;10.90;;
22034;SDS011;11181;51.002;4.356;2023-11-21T03:25:12;21.57;;;10.30;;
22034;SDS011;11181;51.002;4.356;2023-11-21T03:27:39;19.17;;;10.20;;
22034;SDS011;11181;51.002;4.356;2023-11-21T03:30:07;17.23;;;10.83;;
22034;SDS011;11181;51.002;4.356;2023-11-21T03:32:37;16.40;;;11.00;;
22034;SDS011;11181;51.002;4.356;2023-11-21T03:35:04;15.20;;;10.67;;
22034;SDS011;11181;51.002;4.356;2023-11-21T03:37:32;18.10;;;11.63;;
22034;SDS011;11181;51.002;4.356;2023-11-21T03:39:59;16.57;;;10.30;;
22034;SDS011;11181;51.002;4.356;2023-11-21T03:42:26;16.47;;;10.70;;
22034;SDS011;11181;51.002;4.356;2023-11-21T03:44:52;18.30;;;10.97;;
22034;SDS011;11181;51.002;4.356;2023-11-21T03:47:19;19.47;;;10.50;;
22034;SDS011;11181;51.002;4.356;2023-11-21T03:49:47;18.73;;;10.97;;
22034;SDS011;11181;51.002;4.356;2023-11-21T03:52:14;22.60;;;11.63;;
22034;SDS011;11181;51.002;4.356;2023-11-21T03:54:41;17.87;;;10.50;;
22034;SDS011;11181;51.002;4.356;2023-11-21T03:57:08;15.53;;;9.80;;
22034;SDS011;11181;51.002;4.356;2023-11-21T03:59:35;19.40;;;11.03;;
22034;SDS011;11181;51.002;4.356;2023-11-21T04:02:03;19.10;;;11.33;;
22034;SDS011;11181;51.002;4.356;2023-11-21T04:04:30;19.37;;;10.57;;
22034;SDS011;11181;51.002;4.356;2023-11-21T04:06:58;18.77;;;11.13;;
22034;SDS011;11181;51.002;4.356;2023-11-21T04:09:25;23.73;;;11.63;;
22034;SDS011;11181;51.002;4.356;2023-11-21T04:11:52;18.60;;;11.10;;
22034;SDS011;11181;51.002;4.356;2023-11-21T04:14:19;20.93;;;11.30;;
22034;SDS011;11181;51.002;4.356;2023-11-21T04:16:46;18.43;;;10.57;;
22034;SDS011;11181;51.002;4.356;2023-11-21T04:19:13;18.87;;;11.23;;
22034;SDS011;11181;51.002;4.356;2023-11-21T04:21:40;20.87;;;10.70;;
22034;SDS011;11181;51.002;4.356;2023-11-21T04:24:09;16.67;;;10.87;;
22034;SDS011;11181;51.002;4.356;2023-11-21T04:26:36;18.57;;;10.67;;
22034;SDS011;11181;51.002;4.356;2023-11-21T04:29:03;17.33;;;9.67;;
22034;SDS011;11181;51.002;4.356;2023-11-21T04:31:30;19.57;;;12.00;;
22034;SDS011;11181;51.002;4.356;2023-11-21T04:33:58;17.43;;;11.37;;
22034;SDS011;11181;51.002;4.356;2023-11-21T04:36:24;15.67;;;10.87;;
22034;SDS011;11181;51.002;4.356;2023-11-21T04:38:51;19.43;;;10.77;;
22034;SDS011;11181;51.002;4.356;2023-11-21T04:41:19;18.73;;;10.80;;
22034;SDS011;11181;51.002;4.356;2023-11-21T04:43:46;20.03;;;11.40;;
22034;SDS011;11181;51.002;4.356;2023-11-21T04:46:14;16.63;;;10.70;;
22034;SDS011;11181;51.002;4.356;2023-11-21T04:48:41;18.57;;;12.10;;
22034;SDS011;11181;51.002;4.356;2023-11-21T04:51:08;16.90;;;11.00;;
22034;SDS011;11181;51.002;4.356;2023-11-21T04:53:36;15.33;;;10.47;;
22034;SDS011;11181;51.002;4.356;2023-11-21T04:56:04;17.17;;;10.47;;
22034;SDS011;11181;51.002;4.356;2023-11-21T04:58:33;15.60;;;10.57;;
22034;SDS011;11181;51.002;4.356;2023-11-21T05:01:01;21.23;;;11.17;;
22034;SDS011;11181;51.002;4.356;2023-11-21T05:03:28;19.20;;;11.63;;
22034;SDS011;11181;51.002;4.356;2023-11-21T05:05:55;15.70;;;10.00;;
22034;SDS011;11181;51.002;4.356;2023-11-21T05:08:22;22.07;;;11.67;;
22034;SDS011;11181;51.002;4.356;2023-11-21T05:10:48;20.40;;;11.40;;
22034;SDS011;11181;51.002;4.356;2023-11-21T05:13:16;16.93;;;11.93;;
22034;SDS011;11181;51.002;4.356;2023-11-21T05:15:45;21.10;;;11.10;;
22034;SDS011;11181;51.002;4.356;2023-11-21T05:18:12;17.17;;;11.37;;
22034;SDS011;11181;51.002;4.356;2023-11-21T05:20:39;20.50;;;11.07;;
22034;SDS011;11181;51.002;4.356;2023-11-21T05:23:07;19.83;;;11.50;;
22034;SDS011;11181;51.002;4.356;2023-11-21T05:25:34;22.53;;;12.00;;
22034;SDS011;11181;51.002;4.356;2023-11-21T05:28:01;19.07;;;11.53;;
22034;SDS011;11181;51.002;4.356;2023-11-21T05:30:29;20.10;;;12.23;;
22034;SDS011;11181;51.002;4.356;2023-11-21T05:32:57;25.43;;;12.57;;
22034;SDS011;11181;51.002;4.356;2023-11-21T05:35:24;22.60;;;12.93;;
22034;SDS011;11181;51.002;4.356;2023-11-21T05:37:51;21.70;;;12.10;;
22034;SDS011;11181;51.002;4.356;2023-11-21T05:40:18;21.23;;;12.27;;
22034;SDS011;11181;51.002;4.356;2023-11-21T05:42:47;19.03;;;13.13;;
22034;SDS011;11181;51.002;4.356;2023-11-21T05:45:16;18.13;;;12.77;;
22034;SDS011;11181;51.002;4.356;2023-11-21T05:47:44;21.27;;;12.47;;
22034;SDS011;11181;51.002;4.356;2023-11-21T05:50:13;19.10;;;12.43;;
22034;SDS011;11181;51.002;4.356;2023-11-21T05:52:41;22.73;;;13.10;;
22034;SDS011;11181;51.002;4.356;2023-11-21T05:55:09;20.50;;;12.73;;
22034;SDS011;11181;51.002;4.356;2023-11-21T05:57:36;19.33;;;12.37;;
22034;SDS011;11181;51.002;4.356;2023-11-21T06:00:05;18.40;;;12.37;;
22034;SDS011;11181;51.002;4.356;2023-11-21T06:02:37;16.13;;;11.67;;
22034;SDS011;11181;51.002;4.356;2023-11-21T06:05:04;23.20;;;12.37;;
22034;SDS011;11181;51.002;4.356;2023-11-21T06:07:34;17.77;;;11.83;;
22034;SDS011;11181;51.002;4.356;2023-11-21T06:10:01;21.93;;;12.07;;
22034;SDS011;11181;51.002;4.356;2023-11-21T06:12:31;17.27;;;11.20;;
22034;SDS011;11181;51.002;4.356;2023-11-21T06:15:00;20.03;;;12.33;;
22034;SDS011;11181;51.002;4.356;2023-11-21T06:17:29;20.00;;;13.00;;
22034;SDS011;11181;51.002;4.356;2023-11-21T06:19:56;19.67;;;11.87;;
22034;SDS011;11181;51.002;4.356;2023-11-21T06:22:25;20.10;;;12.23;;
22034;SDS011;11181;51.002;4.356;2023-11-21T06:24:54;23.93;;;12.97;;
22034;SDS011;11181;51.002;4.356;2023-11-21T06:27:21;21.63;;;13.00;;
22034;SDS011;11181;51.002;4.356;2023-11-21T06:29:49;20.30;;;13.67;;
22034;SDS011;11181;51.002;4.356;2023-11-21T06:32:16;18.73;;;12.33;;
22034;SDS011;11181;51.002;4.356;2023-11-21T06:34:45;21.03;;;13.17;;
22034;SDS011;11181;51.002;4.356;2023-11-21T06:37:12;20.77;;;13.53;;
22034;SDS011;11181;51.002;4.356;2023-11-21T06:39:39;19.17;;;11.77;;
22034;SDS011;11181;51.002;4.356;2023-11-21T06:42:07;16.93;;;11.90;;
22034;SDS011;11181;51.002;4.356;2023-11-21T06:44:35;18.93;;;12.30;;
22034;SDS011;11181;51.002;4.356;2023-11-21T06:47:03;17.43;;;11.70;;
22034;SDS011;11181;51.002;4.356;2023-11-21T06:49:30;21.33;;;11.83;;
22034;SDS011;11181;51.002;4.356;2023-11-21T06:51:57;19.90;;;13.20;;
22034;SDS011;11181;51.002;4.356;2023-11-21T06:54:24;21.43;;;12.93;;
22034;SDS011;11181;51.002;4.356;2023-11-21T06:56:50;16.07;;;9.77;;
22034;SDS011;11181;51.002;4.356;2023-11-21T06:59:19;24.73;;;13.93;;
22034;SDS011;11181;51.002;4.356;2023-11-21T07:01:46;33.17;;;16.10;;
22034;SDS011;11181;51.002;4.356;2023-11-21T07:04:14;20.63;;;13.07;;
22034;SDS011;11181;51.002;4.356;2023-11-21T07:06:41;22.77;;;11.33;;
22034;SDS011;11181;51.002;4.356;2023-11-21T07:09:08;21.10;;;13.07;;
22034;SDS011;11181;51.002;4.356;2023-11-21T07:11:36;18.17;;;13.10;;
22034;SDS011;11181;51.002;4.356;2023-11-21T07:14:04;19.30;;;13.07;;
22034;SDS011;11181;51.002;4.356;2023-11-21T07:16:34;18.13;;;12.77;;
22034;SDS011;11181;51.002;4.356;2023-11-21T07:19:02;18.03;;;12.57;;
22034;SDS011;11181;51.002;4.356;2023-11-21T07:21:31;21.67;;;12.83;;
22034;SDS011;11181;51.002;4.356;2023-11-21T07:23:58;20.73;;;11.90;;
22034;SDS011;11181;51.002;4.356;2023-11-21T07:26:26;21.73;;;12.17;;
22034;SDS011;11181;51.002;4.356;2023-11-21T07:28:53;20.03;;;12.57;;
22034;SDS011;11181;51.002;4.356;2023-11-21T07:31:20;20.97;;;13.07;;
22034;SDS011;11181;51.002;4.356;2023-11-21T07:33:49;17.60;;;12.17;;
22034;SDS011;11181;51.002;4.356;2023-11-21T07:36:16;25.73;;;13.13;;
22034;SDS011;11181;51.002;4.356;2023-11-21T07:38:44;21.13;;;13.20;;
22034;SDS011;11181;51.002;4.356;2023-11-21T07:41:10;21.63;;;13.80;;
22034;SDS011;11181;51.002;4.356;2023-11-21T07:43:40;21.30;;;13.30;;
22034;SDS011;11181;51.002;4.356;2023-11-21T07:46:07;21.23;;;12.93;;
22034;SDS011;11181;51.002;4.356;2023-11-21T07:48:34;28.00;;;13.53;;
22034;SDS011;11181;51.002;4.356;2023-11-21T07:51:03;22.13;;;13.20;;
22034;SDS011;11181;51.002;4.356;2023-11-21T07:53:30;23.37;;;13.57;;
22034;SDS011;11181;51.002;4.356;2023-11-21T07:55:57;24.37;;;13.40;;
22034;SDS011;11181;51.002;4.356;2023-11-21T07:58:24;24.30;;;13.73;;
22034;SDS011;11181;51.002;4.356;2023-11-21T08:00:51;22.93;;;13.53;;
22034;SDS011;11181;51.002;4.356;2023-11-21T08:03:18;25.07;;;12.97;;
22034;SDS011;11181;51.002;4.356;2023-11-21T08:05:46;28.47;;;14.40;;
22034;SDS011;11181;51.002;4.356;2023-11-21T08:08:14;26.50;;;14.27;;
22034;SDS011;11181;51.002;4.356;2023-11-21T08:10:43;26.37;;;13.20;;
22034;SDS011;11181;51.002;4.356;2023-11-21T08:13:13;25.00;;;14.10;;
22034;SDS011;11181;51.002;4.356;2023-11-21T08:15:42;23.27;;;14.63;;
22034;SDS011;11181;51.002;4.356;2023-11-21T08:18:11;23.83;;;14.13;;
22034;SDS011;11181;51.002;4.356;2023-11-21T08:20:39;29.60;;;16.13;;
22034;SDS011;11181;51.002;4.356;2023-11-21T08:23:08;26.60;;;15.97;;
22034;SDS011;11181;51.002;4.356;2023-11-21T08:25:37;27.60;;;14.57;;
22034;SDS011;11181;51.002;4.356;2023-11-21T08:28:04;32.07;;;15.47;;
22034;SDS011;11181;51.002;4.356;2023-11-21T08:30:31;27.63;;;14.03;;
22034;SDS011;11181;51.002;4.356;2023-11-21T08:32:58;33.67;;;15.60;;
22034;SDS011;11181;51.002;4.356;2023-11-21T08:35:25;33.90;;;18.47;;
22034;SDS011;11181;51.002;4.356;2023-11-21T08:37:52;31.07;;;14.93;;
22034;SDS011;11181;51.002;4.356;2023-11-21T08:40:21;31.83;;;16.97;;
22034;SDS011;11181;51.002;4.356;2023-11-21T08:42:50;36.93;;;18.73;;
22034;SDS011;11181;51.002;4.356;2023-11-21T08:45:17;24.23;;;15.80;;
22034;SDS011;11181;51.002;4.356;2023-11-21T08:47:45;30.97;;;15.50;;
22034;SDS011;11181;51.002;4.356;2023-11-21T08:50:12;33.60;;;14.87;;
22034;SDS011;11181;51.002;4.356;2023-11-21T08:52:40;31.53;;;14.97;;
22034;SDS011;11181;51.002;4.356;2023-11-21T08:55:07;31.50;;;14.43;;
22034;SDS011;11181;51.002;4.356;2023-11-21T08:57:37;24.40;;;13.70;;
22034;SDS011;11181;51.002;4.356;2023-11-21T09:00:07;28.90;;;14.87;;
22034;SDS011;11181;51.002;4.356;2023-11-21T09:02:36;24.03;;;13.53;;
22034;SDS011;11181;51.002;4.356;2023-11-21T09:05:03;23.53;;;14.13;;
22034;SDS011;11181;51.002;4.356;2023-11-21T09:07:31;23.60;;;13.17;;
22034;SDS011;11181;51.002;4.356;2023-11-21T09:09:58;24.90;;;13.60;;
22034;SDS011;11181;51.002;4.356;2023-11-21T09:12:25;19.73;;;12.63;;
22034;SDS011;11181;51.002;4.356;2023-11-21T09:14:52;22.03;;;13.77;;
22034;SDS011;11181;51.002;4.356;2023-11-21T09:17:20;23.20;;;13.97;;
22034;SDS011;11181;51.002;4.356;2023-11-21T09:19:47;25.73;;;14.23;;
22034;SDS011;11181;51.002;4.356;2023-11-21T09:22:16;20.23;;;12.07;;
22034;SDS011;11181;51.002;4.356;2023-11-21T09:24:43;18.53;;;10.20;;
22034;SDS011;11181;51.002;4.356;2023-11-21T09:27:10;14.53;;;9.93;;
22034;SDS011;11181;51.002;4.356;2023-11-21T09:29:37;13.90;;;9.20;;
22034;SDS011;11181;51.002;4.356;2023-11-21T09:32:04;18.00;;;10.43;;
22034;SDS011;11181;51.002;4.356;2023-11-21T09:34:34;20.60;;;11.17;;
22034;SDS011;11181;51.002;4.356;2023-11-21T09:37:03;15.20;;;9.77;;
22034;SDS011;11181;51.002;4.356;2023-11-21T09:39:31;17.00;;;10.73;;
22034;SDS011;11181;51.002;4.356;2023-11-21T09:42:00;17.20;;;10.23;;
22034;SDS011;11181;51.002;4.356;2023-11-21T09:44:35;16.03;;;10.63;;
22034;SDS011;11181;51.002;4.356;2023-11-21T09:47:08;18.57;;;11.60;;
22034;SDS011;11181;51.002;4.356;2023-11-21T09:49:40;20.60;;;12.90;;
22034;SDS011;11181;51.002;4.356;2023-11-21T09:52:07;23.00;;;13.03;;
22034;SDS011;11181;51.002;4.356;2023-11-21T09:54:40;25.90;;;13.70;;
22034;SDS011;11181;51.002;4.356;2023-11-21T09:57:07;22.70;;;13.03;;
22034;SDS011;11181;51.002;4.356;2023-11-21T09:59:34;25.50;;;14.83;;
22034;SDS011;11181;51.002;4.356;2023-11-21T10:02:02;30.10;;;15.97;;
22034;SDS011;11181;51.002;4.356;2023-11-21T10:04:29;27.07;;;15.40;;
22034;SDS011;11181;51.002;4.356;2023-11-21T10:06:59;28.03;;;15.73;;
22034;SDS011;11181;51.002;4.356;2023-11-21T10:09:26;30.17;;;15.33;;
22034;SDS011;11181;51.002;4.356;2023-11-21T10:11:54;25.83;;;14.77;;
22034;SDS011;11181;51.002;4.356;2023-11-21T10:14:22;25.17;;;15.30;;
22034;SDS011;11181;51.002;4.356;2023-11-21T10:16:54;22.77;;;15.07;;
22034;SDS011;11181;51.002;4.356;2023-11-21T10:19:23;25.80;;;15.30;;
22034;SDS011;11181;51.002;4.356;2023-11-21T10:21:52;22.90;;;14.67;;
22034;SDS011;11181;51.002;4.356;2023-11-21T10:24:21;26.30;;;16.23;;
22034;SDS011;11181;51.002;4.356;2023-11-21T10:26:47;23.90;;;14.67;;
22034;SDS011;11181;51.002;4.356;2023-11-21T10:29:16;20.63;;;13.83;;
22034;SDS011;11181;51.002;4.356;2023-11-21T10:31:43;25.77;;;15.20;;
22034;SDS011;11181;51.002;4.356;2023-11-21T10:34:14;22.90;;;13.67;;
22034;SDS011;11181;51.002;4.356;2023-11-21T10:36:42;22.93;;;16.20;;
22034;SDS011;11181;51.002;4.356;2023-11-21T10:39:09;28.53;;;18.63;;
22034;SDS011;11181;51.002;4.356;2023-11-21T10:41:44;26.43;;;17.70;;
22034;SDS011;11181;51.002;4.356;2023-11-21T10:44:13;29.17;;;18.30;;
22034;SDS011;11181;51.002;4.356;2023-11-21T10:46:45;21.97;;;14.20;;
22034;SDS011;11181;51.002;4.356;2023-11-21T10:49:15;30.00;;;21.17;;
22034;SDS011;11181;51.002;4.356;2023-11-21T10:51:43;24.73;;;15.50;;
22034;SDS011;11181;51.002;4.356;2023-11-21T10:54:10;25.97;;;14.87;;
22034;SDS011;11181;51.002;4.356;2023-11-21T10:56:38;20.50;;;15.33;;
22034;SDS011;11181;51.002;4.356;2023-11-21T10:59:10;24.70;;;15.77;;
22034;SDS011;11181;51.002;4.356;2023-11-21T11:01:39;21.40;;;13.27;;
22034;SDS011;11181;51.002;4.356;2023-11-21T11:04:08;18.30;;;11.53;;
22034;SDS011;11181;51.002;4.356;2023-11-21T11:06:40;18.33;;;12.30;;
22034;SDS011;11181;51.002;4.356;2023-11-21T11:09:09;19.37;;;13.00;;
22034;SDS011;11181;51.002;4.356;2023-11-21T11:11:39;15.73;;;11.77;;
22034;SDS011;11181;51.002;4.356;2023-11-21T11:14:10;16.67;;;11.27;;
22034;SDS011;11181;51.002;4.356;2023-11-21T11:16:38;16.90;;;11.47;;
22034;SDS011;11181;51.002;4.356;2023-11-21T11:19:08;19.50;;;13.60;;
22034;SDS011;11181;51.002;4.356;2023-11-21T11:21:38;19.13;;;13.10;;
22034;SDS011;11181;51.002;4.356;2023-11-21T11:24:17;14.20;;;10.50;;
22034;SDS011;11181;51.002;4.356;2023-11-21T11:27:03;17.30;;;10.33;;
22034;SDS011;11181;51.002;4.356;2023-11-21T11:29:45;14.63;;;9.83;;
22034;SDS011;11181;51.002;4.356;2023-11-21T11:32:22;13.97;;;9.53;;
22034;SDS011;11181;51.002;4.356;2023-11-21T11:35:01;11.00;;;8.13;;
22034;SDS011;11181;51.002;4.356;2023-11-21T11:37:35;8.90;;;7.00;;
22034;SDS011;11181;51.002;4.356;2023-11-21T11:40:05;8.27;;;6.47;;
22034;SDS011;11181;51.002;4.356;2023-11-21T11:42:33;8.93;;;6.90;;
22034;SDS011;11181;51.002;4.356;2023-11-21T11:45:02;7.83;;;5.80;;
22034;SDS011;11181;51.002;4.356;2023-11-21T11:47:44;9.30;;;6.07;;
22034;SDS011;11181;51.002;4.356;2023-11-21T11:50:13;8.67;;;6.37;;
22034;SDS011;11181;51.002;4.356;2023-11-21T11:52:42;7.57;;;6.20;;
22034;SDS011;11181;51.002;4.356;2023-11-21T11:55:10;8.93;;;5.57;;
22034;SDS011;11181;51.002;4.356;2023-11-21T11:57:38;8.80;;;7.17;;
22034;SDS011;11181;51.002;4.356;2023-11-21T12:00:08;7.27;;;5.93;;
22034;SDS011;11181;51.002;4.356;2023-11-21T12:02:41;7.73;;;6.07;;
22034;SDS011;11181;51.002;4.356;2023-11-21T12:05:10;7.53;;;6.70;;
22034;SDS011;11181;51.002;4.356;2023-11-21T12:07:41;10.73;;;7.70;;
22034;SDS011;11181;51.002;4.356;2023-11-21T12:10:11;8.33;;;6.57;;
22034;SDS011;11181;51.002;4.356;2023-11-21T12:12:42;11.67;;;7.00;;
22034;SDS011;11181;51.002;4.356;2023-11-21T12:15:11;9.10;;;7.37;;
22034;SDS011;11181;51.002;4.356;2023-11-21T12:17:39;10.80;;;7.40;;
22034;SDS011;11181;51.002;4.356;2023-11-21T12:20:08;10.50;;;7.17;;
22034;SDS011;11181;51.002;4.356;2023-11-21T12:22:41;8.10;;;6.70;;
22034;SDS011;11181;51.002;4.356;2023-11-21T12:25:09;8.97;;;5.17;;
22034;SDS011;11181;51.002;4.356;2023-11-21T12:27:41;11.50;;;6.83;;
22034;SDS011;11181;51.002;4.356;2023-11-21T12:30:09;11.43;;;6.60;;
22034;SDS011;11181;51.002;4.356;2023-11-21T12:32:40;11.03;;;7.53;;
22034;SDS011;11181;51.002;4.356;2023-11-21T12:35:07;11.07;;;6.60;;
22034;SDS011;11181;51.002;4.356;2023-11-21T12:37:36;9.53;;;6.87;;
22034;SDS011;11181;51.002;4.356;2023-11-21T12:40:05;10.93;;;7.20;;
22034;SDS011;11181;51.002;4.356;2023-11-21T12:42:33;12.00;;;7.27;;
22034;SDS011;11181;51.002;4.356;2023-11-21T12:45:07;10.67;;;7.43;;
22034;SDS011;11181;51.002;4.356;2023-11-21T12:47:46;12.43;;;7.07;;
22034;SDS011;11181;51.002;4.356;2023-11-21T12:50:15;9.37;;;6.80;;
22034;SDS011;11181;51.002;4.356;2023-11-21T12:52:47;10.13;;;6.77;;
22034;SDS011;11181;51.002;4.356;2023-11-21T12:55:15;12.13;;;6.03;;
22034;SDS011;11181;51.002;4.356;2023-11-21T12:57:44;8.97;;;5.83;;
22034;SDS011;11181;51.002;4.356;2023-11-21T13:00:12;13.70;;;5.70;;
22034;SDS011;11181;51.002;4.356;2023-11-21T13:02:53;8.90;;;5.80;;
22034;SDS011;11181;51.002;4.356;2023-11-21T13:05:26;6.60;;;4.77;;
22034;SDS011;11181;51.002;4.356;2023-11-21T13:07:54;5.83;;;4.50;;
22034;SDS011;11181;51.002;4.356;2023-11-21T13:10:23;6.67;;;4.43;;
22034;SDS011;11181;51.002;4.356;2023-11-21T13:12:54;8.33;;;4.67;;
22034;SDS011;11181;51.002;4.356;2023-11-21T13:15:23;5.43;;;3.77;;
22034;SDS011;11181;51.002;4.356;2023-11-21T13:17:50;4.13;;;3.40;;
22034;SDS011;11181;51.002;4.356;2023-11-21T13:20:21;5.17;;;3.03;;
22034;SDS011;11181;51.002;4.356;2023-11-21T13:22:49;5.13;;;3.00;;
22034;SDS011;11181;51.002;4.356;2023-11-21T13:25:19;3.50;;;2.47;;
22034;SDS011;11181;51.002;4.356;2023-11-21T13:27:46;7.57;;;2.70;;
22034;SDS011;11181;51.002;4.356;2023-11-21T13:30:14;3.67;;;2.57;;
22034;SDS011;11181;51.002;4.356;2023-11-21T13:32:42;3.03;;;2.40;;
22034;SDS011;11181;51.002;4.356;2023-11-21T13:35:12;5.43;;;2.90;;
22034;SDS011;11181;51.002;4.356;2023-11-21T13:37:48;4.23;;;2.40;;
22034;SDS011;11181;51.002;4.356;2023-11-21T13:40:20;7.33;;;2.60;;
22034;SDS011;11181;51.002;4.356;2023-11-21T13:42:51;3.87;;;2.50;;
22034;SDS011;11181;51.002;4.356;2023-11-21T13:45:20;2.80;;;2.00;;
22034;SDS011;11181;51.002;4.356;2023-11-21T13:47:48;4.00;;;2.30;;
22034;SDS011;11181;51.002;4.356;2023-11-21T13:50:18;5.60;;;2.63;;
22034;SDS011;11181;51.002;4.356;2023-11-21T13:52:51;4.60;;;2.40;;
22034;SDS011;11181;51.002;4.356;2023-11-21T13:55:19;3.13;;;2.83;;
22034;SDS011;11181;51.002;4.356;2023-11-21T13:57:49;2.80;;;2.60;;
22034;SDS011;11181;51.002;4.356;2023-11-21T14:00:17;3.63;;;2.67;;
22034;SDS011;11181;51.002;4.356;2023-11-21T14:03:07;3.63;;;2.30;;
22034;SDS011;11181;51.002;4.356;2023-11-21T14:05:43;7.53;;;2.90;;
22034;SDS011;11181;51.002;4.356;2023-11-21T14:08:12;2.80;;;2.50;;
22034;SDS011;11181;51.002;4.356;2023-11-21T14:10:42;3.30;;;2.50;;
22034;SDS011;11181;51.002;4.356;2023-11-21T14:13:12;3.77;;;2.60;;
22034;SDS011;11181;51.002;4.356;2023-11-21T14:15:41;4.40;;;2.40;;
22034;SDS011;11181;51.002;4.356;2023-11-21T14:18:11;3.47;;;2.30;;
22034;SDS011;11181;51.002;4.356;2023-11-21T14:20:42;3.23;;;2.10;;
22034;SDS011;11181;51.002;4.356;2023-11-21T14:23:10;6.10;;;2.90;;
22034;SDS011;11181;51.002;4.356;2023-11-21T14:25:37;3.53;;;2.60;;
22034;SDS011;11181;51.002;4.356;2023-11-21T14:28:07;9.47;;;2.60;;
22034;SDS011;11181;51.002;4.356;2023-11-21T14:30:36;3.67;;;2.73;;
22034;SDS011;11181;51.002;4.356;2023-11-21T14:33:04;3.93;;;2.53;;